Time;durP1;ratioP1;P1;durP2;ratioP2;P2;SDS_P1;SDS_P2;PMS_P1;PMS_P2;Temp;Humidity;BMP_temperature;BMP_pressure;BME280_temperature;BME280_humidity;BME280_pressure;Samples;Min_cycle;Max_cycle;Signal;HPM_P1;HPM_P2
2021/06/03 00:00:20;;;;;;;5.90;3.28;;;;;;;22.11;42.30;101003.38;5046266;28;20095;-72
2021/06/03 00:02:48;;;;;;;4.32;2.95;;;;;;;22.12;42.22;101006.88;5028352;28;20045;-72
2021/06/03 00:05:19;;;;;;;3.78;3.42;;;;;;;22.09;42.26;101007.09;5049678;28;20037;-71
2021/06/03 00:07:46;;;;;;;4.90;3.20;;;;;;;22.06;42.48;101002.91;5050779;28;20116;-71
2021/06/03 00:10:14;;;;;;;6.03;3.60;;;;;;;22.05;42.38;101013.63;5051908;28;20554;-72
2021/06/03 00:12:41;;;;;;;6.43;3.28;;;;;;;22.04;42.47;101011.97;5051001;28;20446;-72
2021/06/03 00:15:12;;;;;;;3.22;2.92;;;;;;;22.04;42.35;101022.59;5052250;28;20377;-72
2021/06/03 00:17:39;;;;;;;3.40;3.10;;;;;;;21.97;42.82;101023.13;5052507;28;20045;-72
2021/06/03 00:20:09;;;;;;;3.47;3.15;;;;;;;21.94;42.94;101020.75;5052134;28;20071;-72
2021/06/03 00:22:36;;;;;;;4.97;4.25;;;;;;;21.94;43.28;101018.09;5054426;28;20072;-72
2021/06/03 00:25:04;;;;;;;5.85;3.33;;;;;;;21.86;43.48;101023.19;5056249;28;20045;-72
2021/06/03 00:27:31;;;;;;;3.70;3.38;;;;;;;21.86;43.68;101020.53;5056530;28;20072;-72
2021/06/03 00:29:58;;;;;;;5.60;3.45;;;;;;;21.86;43.95;101017.88;5056209;28;20922;-71
2021/06/03 00:32:25;;;;;;;3.72;3.40;;;;;;;21.81;44.21;101017.44;5056358;28;20522;-72
2021/06/03 00:34:52;;;;;;;4.93;4.43;;;;;;;21.77;44.31;101018.66;5056018;28;20072;-71
2021/06/03 00:37:19;;;;;;;3.80;2.95;;;;;;;21.74;44.56;101021.59;5056378;28;20045;-72
2021/06/03 00:39:46;;;;;;;4.43;3.72;;;;;;;21.70;44.60;101025.47;5056319;28;20110;-71
2021/06/03 00:42:14;;;;;;;4.55;3.70;;;;;;;21.68;44.83;101022.13;5056209;28;20049;-72
2021/06/03 00:44:43;;;;;;;3.55;2.70;;;;;;;21.66;44.82;101029.34;5056377;28;20041;-72
2021/06/03 00:47:10;;;;;;;3.58;2.92;;;;;;;21.66;44.97;101026.69;5055782;28;20460;-71
2021/06/03 00:49:37;;;;;;;3.00;2.80;;;;;;;21.61;45.36;101026.22;5053333;28;20049;-71
2021/06/03 00:52:07;;;;;;;6.05;3.20;;;;;;;21.58;45.63;101026.50;5050046;28;20048;-71
2021/06/03 00:54:34;;;;;;;4.43;3.85;;;;;;;21.50;45.82;101024.47;5050103;28;20044;-71
2021/06/03 00:57:02;;;;;;;3.55;3.25;;;;;;;21.49;45.97;101028.09;5048392;28;20037;-71
2021/06/03 00:59:29;;;;;;;4.15;3.40;;;;;;;21.32;46.36;101026.03;5039009;28;20037;-72
2021/06/03 01:01:56;;;;;;;3.80;3.47;;;;;;;21.38;46.20;101031.66;5049672;28;20819;-71
2021/06/03 01:04:28;;;;;;;3.97;3.63;;;;;;;21.30;46.36;101031.44;5030385;28;20434;-71
2021/06/03 01:06:55;;;;;;;6.82;3.92;;;;;;;21.29;46.62;101032.38;5049332;28;20079;-71
2021/06/03 01:09:28;;;;;;;4.38;3.63;;;;;;;21.31;46.39;101027.84;5030157;28;20437;-71
2021/06/03 01:12:17;;;;;;;3.10;2.90;;;;;;;21.31;46.52;101027.84;5031136;28;20051;-71
2021/06/03 01:14:52;;;;;;;4.57;3.30;;;;;;;21.26;46.69;101029.16;5047161;28;20052;-71
2021/06/03 01:17:21;;;;;;;13.57;3.65;;;;;;;21.29;46.42;101029.72;5050800;28;20036;-72
2021/06/03 01:19:50;;;;;;;3.80;3.00;;;;;;;21.29;46.64;101032.38;5032808;28;23412;-72
2021/06/03 01:22:31;;;;;;;5.50;4.18;;;;;;;21.29;46.91;101037.69;5031543;28;20156;-71
2021/06/03 01:25:00;;;;;;;3.53;3.08;;;;;;;21.25;46.95;101035.41;5050027;28;20041;-72
2021/06/03 01:27:32;;;;;;;3.88;3.58;;;;;;;21.21;47.46;101040.13;5049044;28;20582;-73
2021/06/03 01:30:11;;;;;;;3.47;3.17;;;;;;;21.17;47.29;101034.22;5048906;28;20045;-72
2021/06/03 01:32:43;;;;;;;4.03;3.08;;;;;;;21.18;47.01;101040.38;5049147;28;20041;-71
2021/06/03 01:35:19;;;;;;;4.68;4.05;;;;;;;21.12;47.66;101035.59;5047886;28;20051;-72
2021/06/03 01:37:50;;;;;;;3.92;3.63;;;;;;;21.03;48.09;101041.63;5048971;28;20128;-72
2021/06/03 01:40:20;;;;;;;4.40;4.00;;;;;;;21.04;47.31;101032.69;5047844;28;20040;-72
2021/06/03 01:42:48;;;;;;;6.68;3.65;;;;;;;21.09;46.81;101042.00;5046982;28;20029;-73
2021/06/03 01:45:16;;;;;;;4.55;3.80;;;;;;;21.04;46.65;101038.00;5048941;28;20064;-73
2021/06/03 01:47:44;;;;;;;4.55;3.40;;;;;;;21.04;46.78;101030.03;5049040;28;20087;-71
2021/06/03 01:50:14;;;;;;;5.13;4.05;;;;;;;21.04;46.66;101027.41;5030940;28;20048;-71
2021/06/03 01:52:48;;;;;;;6.20;3.83;;;;;;;21.00;47.07;101033.94;5030698;28;20144;-71
2021/06/03 01:55:16;;;;;;;3.92;3.40;;;;;;;21.05;47.04;101029.09;5049763;28;20037;-71
2021/06/03 01:57:46;;;;;;;10.40;4.15;;;;;;;21.00;47.40;101025.97;5030796;28;20098;-72
2021/06/03 02:00:23;;;;;;;4.25;3.67;;;;;;;20.92;47.62;101029.25;5038442;28;20183;-72
2021/06/03 02:02:54;;;;;;;6.15;3.45;;;;;;;20.93;47.83;101020.31;5048386;28;20045;-71
2021/06/03 02:05:28;;;;;;;;;;;;;;;20.85;47.89;101020.94;5046386;28;20045;-72
2021/06/03 02:07:57;;;;;;;3.47;3.17;;;;;;;20.88;47.60;101018.06;5049231;28;20263;-72
2021/06/03 02:10:26;;;;;;;3.63;3.22;;;;;;;20.88;47.57;101023.38;5015144;28;20041;-71
2021/06/03 02:13:04;;;;;;;4.20;3.80;;;;;;;20.76;47.87;101018.19;5031717;28;20043;-72
2021/06/03 02:15:44;;;;;;;5.18;3.88;;;;;;;20.75;47.82;101025.31;5037710;28;20091;-71
2021/06/03 02:18:16;;;;;;;5.05;3.80;;;;;;;20.76;47.82;101028.78;5053008;28;20045;-71
2021/06/03 02:20:47;;;;;;;4.07;3.67;;;;;;;20.77;47.75;101033.13;5036593;28;20111;-71
2021/06/03 02:23:20;;;;;;;4.05;3.75;;;;;;;20.70;47.93;101032.78;5046988;28;20044;-71
2021/06/03 02:25:53;;;;;;;6.40;3.83;;;;;;;20.68;48.27;101024.13;5036715;28;20045;-70
2021/06/03 02:28:21;;;;;;;5.40;3.90;;;;;;;20.66;47.94;101028.69;5035767;28;20048;-70
2021/06/03 02:30:50;;;;;;;7.47;4.18;;;;;;;20.61;48.10;101028.22;5036297;28;20385;-70
2021/06/03 02:33:19;;;;;;;7.00;3.58;;;;;;;20.57;48.19;101032.94;5052636;28;20033;-70
2021/06/03 02:35:47;;;;;;;5.00;3.45;;;;;;;20.59;48.53;101046.03;5054083;28;20044;-71
2021/06/03 02:38:24;;;;;;;4.22;3.83;;;;;;;20.60;48.23;101034.47;5035940;28;20513;-70
2021/06/03 02:40:53;;;;;;;4.45;4.05;;;;;;;20.55;48.16;101036.66;5052856;28;20048;-70
2021/06/03 02:43:21;;;;;;;4.88;3.83;;;;;;;20.54;48.37;101045.56;5052055;28;20132;-70
2021/06/03 02:45:48;;;;;;;5.43;3.58;;;;;;;20.52;48.80;101042.22;5036029;28;20441;-72
2021/06/03 02:48:16;;;;;;;4.45;3.90;;;;;;;20.51;48.89;101044.00;5035486;28;20084;-72
2021/06/03 02:50:45;;;;;;;6.18;3.97;;;;;;;20.48;49.36;101043.41;5035982;28;20557;-72
2021/06/03 02:53:13;;;;;;;4.35;3.95;;;;;;;20.44;49.18;101044.56;5053960;28;20462;-72
2021/06/03 02:55:42;;;;;;;4.30;3.40;;;;;;;20.46;49.22;101045.31;5047561;28;20037;-72
2021/06/03 02:58:12;;;;;;;4.00;3.70;;;;;;;20.41;49.44;101050.97;5041262;28;20534;-72
2021/06/03 03:00:43;;;;;;;6.35;4.10;;;;;;;20.42;49.66;101053.47;5029689;28;20048;-72
2021/06/03 03:03:12;;;;;;;4.70;3.70;;;;;;;20.30;50.35;101051.81;5037007;28;20120;-72
2021/06/03 03:05:42;;;;;;;6.00;4.00;;;;;;;20.28;50.41;101047.56;5046697;28;20045;-72
2021/06/03 03:08:13;;;;;;;5.78;3.78;;;;;;;20.22;50.47;101056.84;5028588;28;20037;-72
2021/06/03 03:10:44;;;;;;;4.32;3.42;;;;;;;20.18;50.91;101062.50;5045584;28;20127;-72
2021/06/03 03:13:13;;;;;;;4.53;3.40;;;;;;;20.18;50.69;101060.69;5025201;28;20133;-72
2021/06/03 03:15:42;;;;;;;4.00;3.70;;;;;;;20.29;50.18;101060.69;5036371;28;20041;-72
2021/06/03 03:18:09;;;;;;;5.95;3.55;;;;;;;20.30;50.00;101062.41;5045383;28;20056;-72
2021/06/03 03:20:39;;;;;;;4.35;3.95;;;;;;;20.23;50.50;101055.03;5044149;28;20037;-72
2021/06/03 03:23:07;;;;;;;4.53;4.05;;;;;;;20.19;50.83;101056.22;5029054;28;20072;-72
2021/06/03 03:25:38;;;;;;;4.40;3.53;;;;;;;20.14;50.73;101059.25;5028901;28;20399;-72
2021/06/03 03:28:07;;;;;;;3.92;3.55;;;;;;;20.11;50.56;101054.19;5029656;28;20410;-72
2021/06/03 03:30:41;;;;;;;6.97;3.90;;;;;;;20.13;50.57;101060.19;5028555;28;20125;-72
2021/06/03 03:33:14;;;;;;;5.55;4.05;;;;;;;20.11;50.90;101057.66;5046606;28;20111;-72
2021/06/03 03:35:46;;;;;;;6.40;4.30;;;;;;;20.08;51.04;101057.06;5028658;28;20045;-71
2021/06/03 03:38:15;;;;;;;3.78;3.47;;;;;;;20.08;50.90;101055.28;5028105;28;20045;-71
2021/06/03 03:40:43;;;;;;;7.03;4.00;;;;;;;20.10;50.32;101060.44;5045994;28;20045;-71
2021/06/03 03:43:11;;;;;;;5.22;3.90;;;;;;;20.11;50.13;101054.19;5044278;28;20037;-72
2021/06/03 03:45:38;;;;;;;6.90;3.90;;;;;;;20.06;50.28;101057.19;5046809;28;20056;-72
2021/06/03 03:48:06;;;;;;;10.48;4.47;;;;;;;20.06;50.48;101057.19;5046084;28;20056;-71
2021/06/03 03:50:36;;;;;;;5.40;3.92;;;;;;;20.10;50.56;101057.78;5046834;28;22096;-71
2021/06/03 03:53:05;;;;;;;4.80;4.20;;;;;;;20.10;50.58;101065.75;5046400;28;20187;-71
2021/06/03 03:55:33;;;;;;;5.35;3.83;;;;;;;20.14;50.30;101065.38;5046970;28;20045;-71
2021/06/03 03:58:02;;;;;;;4.38;3.97;;;;;;;20.08;50.95;101067.63;5045492;28;20048;-72
2021/06/03 04:00:33;;;;;;;6.03;4.30;;;;;;;20.10;50.82;101068.38;5028602;28;20052;-72
2021/06/03 04:03:09;;;;;;;7.40;3.90;;;;;;;20.08;50.99;101060.56;5044549;28;20040;-71
2021/06/03 04:05:37;;;;;;;5.88;3.63;;;;;;;20.09;51.28;101069.34;5028822;28;20041;-71
2021/06/03 04:08:08;;;;;;;4.40;3.95;;;;;;;20.13;51.19;101073.44;5046599;28;20037;-72
2021/06/03 04:10:36;;;;;;;4.25;3.65;;;;;;;20.20;50.78;101073.81;5045621;28;20079;-71
2021/06/03 04:13:04;;;;;;;5.63;3.45;;;;;;;20.19;50.75;101077.41;5046492;28;20080;-75
2021/06/03 04:15:36;;;;;;;4.32;3.92;;;;;;;20.21;50.38;101073.69;5035283;28;20144;-75
2021/06/03 04:18:04;;;;;;;5.90;4.10;;;;;;;20.24;50.58;101073.47;5028500;28;20191;-75
2021/06/03 04:20:33;;;;;;;4.22;3.83;;;;;;;20.25;50.47;101077.78;5028242;28;20128;-74
2021/06/03 04:23:03;;;;;;;4.03;3.63;;;;;;;20.28;50.64;101082.84;5028441;28;20136;-74
2021/06/03 04:25:34;;;;;;;5.25;4.20;;;;;;;20.29;50.44;101084.50;5045252;28;20064;-74
2021/06/03 04:28:01;;;;;;;4.05;3.65;;;;;;;20.34;50.77;101085.00;5045877;28;20125;-75
2021/06/03 04:30:28;;;;;;;5.90;4.25;;;;;;;20.37;50.52;101087.44;5046026;28;20671;-74
2021/06/03 04:32:55;;;;;;;4.25;3.85;;;;;;;20.42;50.98;101095.00;5028080;28;20045;-74
2021/06/03 04:35:24;;;;;;;5.07;4.25;;;;;;;20.51;50.20;101088.19;5027982;28;20073;-75
2021/06/03 04:37:52;;;;;;;5.70;3.95;;;;;;;20.62;50.14;101080.25;5046275;28;20144;-74
2021/06/03 04:40:23;;;;;;;5.35;3.53;;;;;;;20.72;49.53;101090.94;5045760;28;20124;-74
2021/06/03 04:42:51;;;;;;;4.28;3.88;;;;;;;20.84;49.17;101090.81;5046170;28;20044;-74
2021/06/03 04:45:19;;;;;;;4.00;3.53;;;;;;;20.88;49.49;101081.66;5048824;28;20106;-74
2021/06/03 04:47:47;;;;;;;6.70;3.60;;;;;;;20.95;49.01;101087.31;5045348;28;20072;-76
2021/06/03 04:50:17;;;;;;;4.80;4.40;;;;;;;21.04;48.61;101094.53;5045989;28;20409;-74
2021/06/03 04:52:44;;;;;;;4.85;4.35;;;;;;;21.18;48.18;101099.53;5045578;28;20041;-73
2021/06/03 04:55:19;;;;;;;5.55;3.88;;;;;;;21.28;48.20;101094.34;5024623;28;20095;-72
2021/06/03 04:57:47;;;;;;;5.72;4.10;;;;;;;21.39;48.24;101096.97;5047811;28;20041;-71
2021/06/03 05:00:26;;;;;;;6.32;3.88;;;;;;;21.66;47.86;101098.34;5052573;28;20053;-71
2021/06/03 05:02:55;;;;;;;7.70;4.70;;;;;;;21.60;50.05;101099.69;5050970;28;20049;-71
2021/06/03 05:05:22;;;;;;;6.72;4.68;;;;;;;21.75;49.66;101102.88;5051452;28;20065;-73
2021/06/03 05:07:50;;;;;;;6.97;4.95;;;;;;;21.87;49.28;101099.19;5052529;28;20549;-72
2021/06/03 05:10:19;;;;;;;7.57;4.80;;;;;;;22.09;48.97;101105.34;5055973;28;20056;-74
2021/06/03 05:12:46;;;;;;;5.38;4.70;;;;;;;22.14;48.27;101106.66;5055277;28;20052;-74
2021/06/03 05:15:17;;;;;;;10.25;4.38;;;;;;;22.48;48.32;101101.97;5037677;28;20052;-74
2021/06/03 05:17:44;;;;;;;7.28;5.28;;;;;;;23.00;47.11;101104.53;5037829;28;20069;-73
2021/06/03 05:20:14;;;;;;;7.45;4.57;;;;;;;23.34;45.92;101110.38;5049201;28;20048;-74
2021/06/03 05:22:43;;;;;;;4.80;4.32;;;;;;;23.61;45.34;101106.19;5035075;28;20048;-76
2021/06/03 05:25:13;;;;;;;9.18;5.13;;;;;;;23.97;43.79;101112.59;5055123;28;20120;-74
2021/06/03 05:27:40;;;;;;;9.30;4.15;;;;;;;24.18;42.65;101112.44;5053808;28;20055;-72
2021/06/03 05:30:10;;;;;;;5.93;4.50;;;;;;;24.54;42.01;101114.31;5055277;28;20049;-74
2021/06/03 05:32:38;;;;;;;4.10;3.70;;;;;;;24.78;41.29;101120.97;5055205;28;20067;-74
2021/06/03 05:35:08;;;;;;;5.90;3.65;;;;;;;25.04;40.37;101116.63;5053851;28;20456;-74
2021/06/03 05:37:35;;;;;;;5.47;4.00;;;;;;;25.26;39.89;101111.88;5053606;28;20128;-74
2021/06/03 05:40:05;;;;;;;7.93;4.35;;;;;;;25.50;39.42;101111.28;5054245;28;20079;-73
2021/06/03 05:42:32;;;;;;;3.85;3.55;;;;;;;25.66;39.46;101107.91;5054151;28;20518;-75
2021/06/03 05:45:04;;;;;;;5.78;3.58;;;;;;;25.96;38.97;101112.03;5055858;28;20098;-76
2021/06/03 05:47:31;;;;;;;3.70;3.33;;;;;;;26.21;37.89;101113.06;5055223;28;20403;-67
2021/06/03 05:49:58;;;;;;;12.57;8.13;;;;;;;26.11;38.52;101123.84;5054102;28;20041;-67
2021/06/03 05:52:25;;;;;;;10.52;4.90;;;;;;;26.69;37.31;101122.38;5055208;28;20033;-66
2021/06/03 05:54:52;;;;;;;5.97;3.70;;;;;;;26.89;36.47;101119.25;5054357;28;20523;-66
2021/06/03 05:57:19;;;;;;;4.85;3.25;;;;;;;26.88;35.77;101120.25;5054002;28;20125;-66
2021/06/03 05:59:45;;;;;;;5.88;3.95;;;;;;;27.39;34.66;101120.28;5054935;28;20136;-66
2021/06/03 06:02:18;;;;;;;5.85;3.65;;;;;;;27.38;34.11;101121.28;5054603;28;20045;-65
2021/06/03 06:07:32;;;;;;;6.85;3.00;;;;;;;27.99;34.10;101136.06;5054562;28;20400;-67
2021/06/03 06:09:59;;;;;;;6.90;3.53;;;;;;;28.40;33.18;101128.00;5053286;28;20119;-62
2021/06/03 06:12:26;;;;;;;5.75;3.72;;;;;;;28.41;34.47;101135.84;5054155;28;20037;-63
2021/06/03 06:14:53;;;;;;;7.97;4.20;;;;;;;27.83;35.39;101133.38;5054736;28;20110;-65
2021/06/03 06:17:20;;;;;;;7.38;3.45;;;;;;;28.62;34.37;101140.66;5052989;28;20106;-68
2021/06/03 06:19:47;;;;;;;5.88;3.72;;;;;;;29.03;32.53;101139.66;5053499;28;20442;-70
2021/06/03 06:22:16;;;;;;;5.38;4.13;;;;;;;29.10;31.17;101138.81;5054329;28;20041;-71
2021/06/03 06:24:46;;;;;;;5.63;3.38;;;;;;;29.41;30.82;101140.63;5054388;28;20563;-72
2021/06/03 06:38:50;;;;;;;7.63;3.92;;;;;;;29.77;29.49;101140.88;3550795;23;20379;-63
2021/06/03 06:41:17;;;;;;;7.22;3.95;;;;;;;29.90;29.54;101142.97;4917110;29;20464;-67
2021/06/03 06:43:44;;;;;;;4.38;3.45;;;;;;;30.11;29.60;101151.19;4917285;29;20051;-66
2021/06/03 06:46:11;;;;;;;7.78;3.97;;;;;;;30.19;29.42;101152.97;4917721;29;20076;-59
2021/06/03 06:48:38;;;;;;;6.82;4.07;;;;;;;30.49;27.74;101152.00;4917580;29;20072;-59
2021/06/03 06:51:05;;;;;;;4.30;3.90;;;;;;;30.72;27.91;101151.91;4917332;29;20458;-59
2021/06/03 06:53:32;;;;;;;6.95;3.80;;;;;;;30.97;27.29;101154.31;4917470;29;20082;-61
2021/06/03 06:55:59;;;;;;;3.90;3.47;;;;;;;31.26;27.04;101153.44;4917883;29;20390;-60
2021/06/03 06:58:28;;;;;;;5.13;3.83;;;;;;;31.00;27.03;101151.22;4917053;29;20044;-60
2021/06/03 07:00:56;;;;;;;4.28;3.88;;;;;;;31.36;26.70;101155.81;4917480;29;20040;-60
2021/06/03 07:03:23;;;;;;;7.85;3.50;;;;;;;31.86;26.53;101152.22;4917272;29;20119;-61
2021/06/03 07:05:50;;;;;;;6.03;3.75;;;;;;;31.77;26.44;101150.63;4910105;29;20380;-63
2021/06/03 07:08:17;;;;;;;6.88;4.07;;;;;;;31.99;26.28;101148.78;4915670;29;20127;-62
2021/06/03 07:10:45;;;;;;;8.52;3.97;;;;;;;31.85;25.98;101155.09;4915592;29;20032;-62
2021/06/03 07:13:12;;;;;;;8.35;4.30;;;;;;;32.02;25.86;101164.59;4909491;29;20062;-63
2021/06/03 07:15:40;;;;;;;4.28;3.88;;;;;;;32.13;25.37;101163.22;4911234;29;20139;-63
2021/06/03 07:18:07;;;;;;;9.20;3.40;;;;;;;32.09;26.16;101165.47;4916454;29;20044;-63
2021/06/03 07:20:34;;;;;;;4.90;3.78;;;;;;;32.44;25.83;101162.81;4914656;29;20418;-63
2021/06/03 07:23:05;;;;;;;11.48;3.53;;;;;;;32.68;26.15;101164.22;4917023;29;20466;-63
2021/06/03 07:25:38;;;;;;;7.07;4.55;;;;;;;32.49;26.06;101171.16;4916693;29;20048;-63
2021/06/03 07:28:05;;;;;;;6.15;5.15;;;;;;;33.01;25.32;101175.19;4916452;29;20075;-64
2021/06/03 07:30:33;;;;;;;5.75;3.60;;;;;;;33.42;25.02;101172.44;4916782;29;20127;-64
2021/06/03 07:33:00;;;;;;;8.20;4.75;;;;;;;33.78;24.45;101172.09;4914757;29;20062;-63
2021/06/03 07:35:28;;;;;;;8.82;4.47;;;;;;;33.27;25.65;101174.47;4911993;29;20570;-64
2021/06/03 07:37:56;;;;;;;6.15;4.38;;;;;;;33.15;25.80;101171.53;4916035;29;20049;-64
2021/06/03 07:40:30;;;;;;;8.38;4.32;;;;;;;32.99;25.93;101172.69;4916087;29;20131;-64
2021/06/03 07:42:57;;;;;;;4.68;4.05;;;;;;;33.60;25.88;101174.56;4915885;29;20051;-63
2021/06/03 07:45:28;;;;;;;5.65;4.70;;;;;;;33.45;25.38;101176.59;4915955;29;20043;-63
2021/06/03 07:47:57;;;;;;;6.93;4.18;;;;;;;34.04;24.94;101170.47;4913851;29;20048;-64
2021/06/03 07:50:27;;;;;;;5.60;4.28;;;;;;;34.31;24.41;101171.28;4900288;29;20044;-65
2021/06/03 07:52:55;;;;;;;5.35;4.88;;;;;;;34.14;24.78;101177.13;4902841;29;20813;-64
2021/06/03 07:55:22;;;;;;;5.45;4.80;;;;;;;34.48;24.12;101172.53;4915452;29;20107;-64
2021/06/03 07:57:52;;;;;;;5.05;4.47;;;;;;;34.07;24.54;101172.75;4908720;29;20046;-65
2021/06/03 08:00:22;;;;;;;8.77;4.57;;;;;;;33.90;24.69;101175.00;4902797;29;20044;-64
2021/06/03 08:02:49;;;;;;;6.38;4.60;;;;;;;34.32;24.64;101168.34;4902936;29;20056;-64
2021/06/03 08:05:21;;;;;;;10.23;5.60;;;;;;;34.84;23.71;101171.16;4907953;29;20044;-65
2021/06/03 08:07:49;;;;;;;9.38;4.90;;;;;;;33.99;24.91;101172.97;4903816;29;20468;-64
2021/06/03 08:10:22;;;;;;;10.93;4.18;;;;;;;34.87;23.69;101170.72;4901464;29;20495;-65
2021/06/03 08:12:50;;;;;;;9.98;4.47;;;;;;;34.87;23.28;101170.72;4901661;29;20083;-64
2021/06/03 08:15:18;;;;;;;7.47;4.78;;;;;;;34.53;23.68;101174.59;4905774;29;20044;-64
2021/06/03 08:17:45;;;;;;;6.03;4.75;;;;;;;33.79;23.57;101172.94;4911271;29;20123;-64
2021/06/03 08:20:22;;;;;;;7.75;5.35;;;;;;;34.08;23.17;101171.69;4907970;29;20084;-65
2021/06/03 08:22:49;;;;;;;8.07;6.28;;;;;;;33.42;24.25;101172.44;4906194;29;20044;-64
2021/06/03 08:25:18;;;;;;;7.85;4.55;;;;;;;33.21;24.38;101170.69;4907821;29;20044;-65
2021/06/03 08:27:45;;;;;;;5.07;4.40;;;;;;;32.18;25.18;101167.00;4910877;29;20070;-62
2021/06/03 08:30:14;;;;;;;6.65;4.68;;;;;;;32.25;25.48;101165.16;4913139;29;20127;-64
2021/06/03 08:32:45;;;;;;;12.25;4.57;;;;;;;32.67;25.88;101168.78;4912343;29;20040;-63
2021/06/03 08:35:15;;;;;;;10.10;4.82;;;;;;;33.18;24.52;101157.59;4913020;29;20051;-63
2021/06/03 08:37:43;;;;;;;10.07;6.07;;;;;;;33.14;24.47;101169.84;4907362;29;20048;-62
2021/06/03 08:40:12;;;;;;;9.45;6.35;;;;;;;32.25;26.46;101165.16;4908464;29;20063;-63
2021/06/03 08:42:40;;;;;;;7.22;5.40;;;;;;;32.78;25.95;101164.69;4902266;29;20054;-66
2021/06/03 08:45:08;;;;;;;9.57;6.72;;;;;;;32.96;24.94;101165.00;4907623;29;20048;-66
2021/06/03 08:47:35;;;;;;;7.80;5.47;;;;;;;32.79;25.25;101167.16;4905587;29;20480;-65
2021/06/03 08:50:04;;;;;;;7.35;4.93;;;;;;;33.06;24.81;101172.72;4902855;29;20128;-67
2021/06/03 08:52:31;;;;;;;6.75;5.07;;;;;;;33.04;24.72;101169.41;4907751;29;20044;-66
2021/06/03 08:54:59;;;;;;;10.15;5.40;;;;;;;33.17;25.37;101164.03;4915241;29;20411;-66
2021/06/03 08:57:26;;;;;;;7.38;4.95;;;;;;;32.93;25.57;101170.81;4909107;29;20043;-66
2021/06/03 08:59:53;;;;;;;9.68;4.70;;;;;;;32.85;25.35;101177.16;4905083;29;20058;-64
2021/06/03 09:02:20;;;;;;;7.07;6.38;;;;;;;31.77;26.41;101158.72;4907375;29;20131;-64
2021/06/03 09:04:47;;;;;;;7.03;6.32;;;;;;;31.62;26.42;101169.56;4903727;29;20044;-64
2021/06/03 09:07:47;;;;;;;6.20;5.60;;;;;;;31.66;27.04;101165.47;4908720;29;20036;-63
2021/06/03 09:10:35;;;;;;;6.25;5.63;;;;;;;31.94;26.70;101165.53;4880984;29;20103;-65
2021/06/03 09:13:10;;;;;;;13.40;6.78;;;;;;;31.49;27.09;101158.69;4917655;29;20048;-65
2021/06/03 09:15:40;;;;;;;5.43;4.93;;;;;;;31.32;27.15;101165.31;4916203;29;20794;-64
2021/06/03 09:18:09;;;;;;;6.65;5.95;;;;;;;31.34;26.95;101163.28;4910310;29;20055;-64
2021/06/03 09:20:38;;;;;;;6.50;4.57;;;;;;;31.44;27.03;101170.03;4908003;29;20067;-64
2021/06/03 09:23:05;;;;;;;8.95;5.93;;;;;;;31.13;27.07;101172.94;4905752;29;20055;-63
2021/06/03 09:25:40;;;;;;;8.77;6.43;;;;;;;29.86;28.21;101171.22;4904477;29;20040;-63
2021/06/03 09:28:30;;;;;;;9.35;5.22;;;;;;;30.37;28.08;101166.09;4914910;29;20123;-62
2021/06/03 09:31:09;;;;;;;7.80;5.40;;;;;;;30.43;28.11;101163.50;4898065;29;20055;-62
2021/06/03 09:33:45;;;;;;;5.90;5.03;;;;;;;30.48;26.68;101166.47;4888946;29;20040;-64
2021/06/03 09:36:26;;;;;;;8.07;4.90;;;;;;;29.79;27.72;101159.53;4912599;29;20081;-65
2021/06/03 09:38:55;;;;;;;4.47;3.63;;;;;;;29.90;28.27;101164.47;4909608;29;20079;-65
2021/06/03 09:41:24;;;;;;;8.25;5.53;;;;;;;30.18;27.92;101167.44;4907022;29;20130;-65
2021/06/03 09:44:07;;;;;;;4.80;4.35;;;;;;;30.14;28.63;101150.00;4914526;29;20044;-64
2021/06/03 09:46:40;;;;;;;9.85;5.38;;;;;;;30.27;27.62;101155.59;4915534;29;20127;-64
2021/06/03 09:49:13;;;;;;;6.80;4.43;;;;;;;30.10;28.10;101152.22;4916519;29;20052;-63
2021/06/03 09:51:43;;;;;;;7.25;6.20;;;;;;;29.89;29.25;101150.22;4917016;29;20300;-64
2021/06/03 09:54:13;;;;;;;10.43;5.32;;;;;;;29.83;29.89;101150.06;4911357;29;20139;-65
2021/06/03 09:56:43;;;;;;;6.32;5.82;;;;;;;29.61;29.77;101151.75;4903379;29;20043;-64
2021/06/03 09:59:20;;;;;;;7.45;6.28;;;;;;;29.29;29.71;101158.16;4905753;29;20131;-65
2021/06/03 10:01:48;;;;;;;6.18;5.63;;;;;;;29.53;29.36;101155.34;4912054;29;20124;-65
2021/06/03 10:04:28;;;;;;;5.93;5.18;;;;;;;29.46;30.10;101151.69;4910614;29;20048;-65
2021/06/03 10:07:04;;;;;;;11.73;6.97;;;;;;;28.99;31.05;101152.63;4902818;29;20178;-66
2021/06/03 10:09:35;;;;;;;8.00;6.22;;;;;;;29.19;31.58;101153.84;4902935;29;20055;-63
2021/06/03 10:12:02;;;;;;;11.23;6.70;;;;;;;29.21;30.79;101146.44;4904269;29;20040;-63
2021/06/03 10:14:29;;;;;;;8.70;5.53;;;;;;;29.21;31.41;101142.94;4901764;29;20581;-62
2021/06/03 10:16:56;;;;;;;6.65;5.97;;;;;;;29.17;30.90;101149.66;4905532;29;20036;-64
2021/06/03 10:19:28;;;;;;;7.38;6.10;;;;;;;29.13;30.36;101143.78;4905045;29;20044;-65
2021/06/03 10:22:21;;;;;;;7.03;6.35;;;;;;;28.87;31.14;101137.84;4903930;29;20047;-62
2021/06/03 10:24:57;;;;;;;6.68;6.07;;;;;;;28.97;31.43;101146.56;4905460;29;20045;-63
2021/06/03 10:27:30;;;;;;;7.55;6.82;;;;;;;28.90;31.27;101142.88;4903902;29;20514;-64
2021/06/03 10:29:58;;;;;;;7.43;5.30;;;;;;;29.18;31.13;101152.16;4904375;29;20073;-66
2021/06/03 10:32:29;;;;;;;6.88;5.53;;;;;;;29.25;31.23;101152.31;4906034;29;20048;-64
2021/06/03 10:34:57;;;;;;;6.57;4.35;;;;;;;29.28;31.21;101146.56;4907150;29;20072;-65
2021/06/03 10:37:25;;;;;;;6.97;5.40;;;;;;;29.40;30.29;101144.31;4908949;29;20040;-64
2021/06/03 10:39:55;;;;;;;10.50;6.10;;;;;;;29.22;30.24;101147.28;4909688;29;20062;-63
2021/06/03 10:42:23;;;;;;;6.53;5.93;;;;;;;29.13;30.44;101149.16;4905455;29;20044;-64
2021/06/03 10:44:51;;;;;;;7.78;4.85;;;;;;;29.35;30.82;101144.00;4906526;29;20044;-63
2021/06/03 10:47:19;;;;;;;6.53;4.78;;;;;;;29.48;30.29;101134.38;4906061;29;20054;-64
2021/06/03 10:49:47;;;;;;;8.80;5.72;;;;;;;29.48;28.82;101136.22;4904364;29;20044;-63
2021/06/03 10:52:16;;;;;;;6.03;4.70;;;;;;;29.08;29.46;101137.28;4905255;29;20044;-65
2021/06/03 10:54:51;;;;;;;7.05;3.65;;;;;;;29.20;29.92;101135.91;4904748;29;20836;-65
2021/06/03 10:57:21;;;;;;;5.32;4.28;;;;;;;29.15;29.62;101131.06;4904190;29;20131;-65
2021/06/03 10:59:50;;;;;;;6.07;5.57;;;;;;;28.89;30.50;101134.00;4906509;29;20076;-65
2021/06/03 11:02:18;;;;;;;6.75;6.05;;;;;;;28.77;29.88;101131.91;4903304;29;20128;-65
2021/06/03 11:04:45;;;;;;;4.88;4.47;;;;;;;29.00;30.44;101132.81;4904684;29;20055;-66
2021/06/03 11:07:14;;;;;;;10.90;5.68;;;;;;;29.02;30.02;101136.16;4904447;29;20050;-65
2021/06/03 11:09:44;;;;;;;6.40;5.60;;;;;;;29.19;29.84;101132.38;4903995;29;20048;-65
2021/06/03 11:12:22;;;;;;;16.52;4.93;;;;;;;29.25;29.97;101124.63;4906340;29;20135;-65
2021/06/03 11:15:07;;;;;;;5.07;4.15;;;;;;;29.36;29.72;101119.69;4906058;29;20138;-65
2021/06/03 11:17:57;;;;;;;7.60;4.43;;;;;;;29.27;29.65;101122.59;4902832;29;20040;-66
2021/06/03 11:20:39;;;;;;;7.63;5.28;;;;;;;29.03;29.45;101121.75;4903605;29;20045;-65
2021/06/03 11:23:33;;;;;;;5.82;5.20;;;;;;;28.44;29.08;101118.56;4905165;29;20854;-65
2021/06/03 11:26:07;;;;;;;6.88;3.90;;;;;;;28.77;28.95;101115.78;4913196;29;20068;-64
2021/06/03 11:28:34;;;;;;;7.30;3.30;;;;;;;28.73;27.28;101112.63;4915685;29;20043;-64
2021/06/03 11:31:24;;;;;;;3.72;2.47;;;;;;;28.70;27.33;101116.47;4914867;29;20050;-65
2021/06/03 11:34:06;;;;;;;4.53;4.13;;;;;;;28.65;28.00;101112.63;4908150;29;20071;-64
2021/06/03 11:36:35;;;;;;;3.85;3.08;;;;;;;28.79;28.63;101111.06;4904016;29;20072;-63
2021/06/03 11:39:26;;;;;;;3.28;2.97;;;;;;;28.70;28.41;101110.25;4908610;29;20044;-63
2021/06/03 11:41:53;;;;;;;6.93;4.18;;;;;;;28.59;28.00;101107.97;4912008;29;20507;-64
2021/06/03 11:44:20;;;;;;;4.20;3.55;;;;;;;28.56;27.47;101106.47;4914326;29;20048;-64
2021/06/03 11:46:50;;;;;;;5.95;3.10;;;;;;;28.45;27.74;101101.50;4913374;29;20048;-64
2021/06/03 11:49:35;;;;;;;4.28;3.33;;;;;;;28.65;27.91;101097.38;4914561;29;20828;-64
2021/06/03 11:52:13;;;;;;;4.25;2.90;;;;;;;28.74;28.00;101089.31;4915074;29;20099;-63